Time;durP1;ratioP1;P1;durP2;ratioP2;P2;SDS_P1;SDS_P2;PMS_P1;PMS_P2;Temp;Humidity;BMP_temperature;BMP_pressure;BME280_temperature;BME280_humidity;BME280_pressure;Samples;Min_cycle;Max_cycle;Signal;HPM_P1;HPM_P2
2022/09/12 00:01:12;;;;;;;4.43;3.70;;;;;;;;;;5047817;28;20429;-82
2022/09/12 00:03:40;;;;;;;4.60;3.92;;;;;;;;;;5047425;28;20925;-82
2022/09/12 00:06:08;;;;;;;3.67;3.38;;;;;;;;;;5047610;28;20433;-81
2022/09/12 00:08:34;;;;;;;3.80;3.50;;;;;;;;;;5045554;28;20433;-81
2022/09/12 00:11:04;;;;;;;5.10;3.87;;;;;;;;;;5044180;28;20434;-81
2022/09/12 00:13:30;;;;;;;5.60;4.32;;;;;;;;;;5045176;28;20910;-81
2022/09/12 00:15:57;;;;;;;4.30;3.90;;;;;;;;;;5043617;28;20865;-80
2022/09/12 00:18:23;;;;;;;4.90;4.40;;;;;;;;;;5046048;28;20970;-81
2022/09/12 00:20:51;;;;;;;4.90;4.00;;;;;;;;;;5045108;28;20430;-80
2022/09/12 00:23:17;;;;;;;4.70;4.25;;;;;;;;;;5043290;28;20428;-80
2022/09/12 00:25:44;;;;;;;4.90;4.30;;;;;;;;;;5044350;28;20469;-80
2022/09/12 00:28:11;;;;;;;5.03;4.63;;;;;;;;;;5046103;28;20434;-80
2022/09/12 00:30:40;;;;;;;5.50;3.80;;;;;;;;;;5044333;28;20816;-80
2022/09/12 00:33:06;;;;;;;4.88;4.38;;;;;;;;;;5046482;28;20435;-81
2022/09/12 00:35:33;;;;;;;4.70;4.20;;;;;;;;;;5045640;28;20426;-80
2022/09/12 00:38:01;;;;;;;4.63;3.90;;;;;;;;;;5045193;28;20454;-81
2022/09/12 00:40:28;;;;;;;5.72;5.20;;;;;;;;;;5044517;28;20799;-81
2022/09/12 00:42:54;;;;;;;5.82;5.30;;;;;;;;;;5044706;28;20429;-81
2022/09/12 00:45:23;;;;;;;4.80;4.40;;;;;;;;;;5043978;28;20460;-80
2022/09/12 00:47:49;;;;;;;4.93;4.43;;;;;;;;;;5044491;28;20469;-81
2022/09/12 00:50:16;;;;;;;4.90;4.30;;;;;;;;;;5043541;28;20446;-81
2022/09/12 00:52:44;;;;;;;4.20;3.80;;;;;;;;;;5044420;28;20435;-81
2022/09/12 00:55:14;;;;;;;5.00;4.60;;;;;;;;;;5044359;28;20454;-80
2022/09/12 00:57:43;;;;;;;6.22;5.40;;;;;;;;;;5043526;28;20433;-80
2022/09/12 01:00:13;;;;;;;5.70;5.20;;;;;;;;;;5042538;28;20465;-81
2022/09/12 01:02:40;;;;;;;5.73;5.10;;;;;;;;;;5043652;28;20457;-81
2022/09/12 01:05:07;;;;;;;5.50;5.00;;;;;;;;;;5042316;28;20502;-81
2022/09/12 01:07:35;;;;;;;5.85;5.25;;;;;;;;;;5045212;28;21139;-81
2022/09/12 01:10:01;;;;;;;5.78;5.18;;;;;;;;;;5043062;28;20521;-81
2022/09/12 01:12:30;;;;;;;5.30;4.70;;;;;;;;;;5046517;28;20536;-80
2022/09/12 01:14:56;;;;;;;5.43;4.95;;;;;;;;;;5044208;28;20508;-81
2022/09/12 01:17:25;;;;;;;5.15;4.65;;;;;;;;;;5044158;28;20448;-80
2022/09/12 01:20:10;;;;;;;5.60;5.10;;;;;;;;;;5041305;28;20791;-80
2022/09/12 01:22:44;;;;;;;7.43;6.72;;;;;;;;;;5043691;28;20436;-80
2022/09/12 01:25:15;;;;;;;6.88;6.28;;;;;;;;;;5043311;28;20447;-81
2022/09/12 01:27:50;;;;;;;5.60;5.10;;;;;;;;;;5043187;28;20516;-81
2022/09/12 01:30:28;;;;;;;6.83;6.23;;;;;;;;;;5043362;28;20580;-81
2022/09/12 01:33:01;;;;;;;6.72;6.13;;;;;;;;;;5042408;28;20516;-81
2022/09/12 01:35:31;;;;;;;6.30;5.70;;;;;;;;;;5043852;28;20961;-80
2022/09/12 01:38:02;;;;;;;5.70;5.10;;;;;;;;;;5044282;28;20429;-81
2022/09/12 01:40:31;;;;;;;7.80;7.10;;;;;;;;;;5042120;28;20864;-80
2022/09/12 01:43:03;;;;;;;9.30;8.30;;;;;;;;;;5042585;28;20460;-80
2022/09/12 01:45:32;;;;;;;8.40;7.60;;;;;;;;;;5043171;28;20425;-80
2022/09/12 01:48:01;;;;;;;9.18;7.68;;;;;;;;;;5043529;28;20934;-80
2022/09/12 01:50:28;;;;;;;8.60;7.70;;;;;;;;;;5042071;28;20981;-80
2022/09/12 01:52:57;;;;;;;8.00;7.30;;;;;;;;;;5044422;28;20825;-80
2022/09/12 01:55:25;;;;;;;7.72;6.60;;;;;;;;;;5042555;28;20953;-81
2022/09/12 01:57:54;;;;;;;8.45;7.18;;;;;;;;;;5043188;28;20439;-81
2022/09/12 02:00:20;;;;;;;7.65;6.95;;;;;;;;;;5041898;28;20430;-81
2022/09/12 02:02:51;;;;;;;9.65;8.30;;;;;;;;;;5042828;28;20430;-80
2022/09/12 02:05:20;;;;;;;9.53;8.53;;;;;;;;;;5042984;28;20542;-81
2022/09/12 02:07:48;;;;;;;8.60;7.80;;;;;;;;;;5043638;28;20529;-80
2022/09/12 02:10:16;;;;;;;10.13;7.72;;;;;;;;;;5043774;28;20947;-80
2022/09/12 02:12:44;;;;;;;9.23;8.32;;;;;;;;;;5044119;28;20441;-80
2022/09/12 02:15:12;;;;;;;10.18;9.07;;;;;;;;;;5041675;28;20772;-80
2022/09/12 02:17:40;;;;;;;10.48;9.38;;;;;;;;;;5041372;28;20522;-81
2022/09/12 02:20:10;;;;;;;9.60;7.28;;;;;;;;;;5042597;28;20418;-81
2022/09/12 02:22:37;;;;;;;8.57;7.67;;;;;;;;;;5043908;28;20843;-80
2022/09/12 02:25:05;;;;;;;9.30;8.30;;;;;;;;;;5040803;28;20462;-81
2022/09/12 02:27:33;;;;;;;9.65;8.65;;;;;;;;;;5043397;28;20865;-80
2022/09/12 02:29:59;;;;;;;10.07;9.07;;;;;;;;;;5042606;28;20421;-81
2022/09/12 02:32:31;;;;;;;10.20;9.20;;;;;;;;;;5043676;28;20429;-80
2022/09/12 02:35:00;;;;;;;10.40;9.20;;;;;;;;;;5042292;28;20433;-81
2022/09/12 02:37:32;;;;;;;9.52;8.45;;;;;;;;;;5043115;28;20435;-80
2022/09/12 02:40:00;;;;;;;9.20;8.30;;;;;;;;;;5043436;28;20425;-81
2022/09/12 02:42:26;;;;;;;8.77;7.88;;;;;;;;;;5041582;28;20436;-81
2022/09/12 02:44:53;;;;;;;8.43;7.60;;;;;;;;;;5044500;28;20529;-81
2022/09/12 02:47:23;;;;;;;9.80;8.70;;;;;;;;;;5043530;28;20437;-81
2022/09/12 02:49:49;;;;;;;11.18;9.82;;;;;;;;;;5040178;28;20771;-81
2022/09/12 02:52:16;;;;;;;11.15;9.98;;;;;;;;;;5043444;28;20432;-81
2022/09/12 02:54:44;;;;;;;11.30;10.20;;;;;;;;;;5041055;28;21316;-81
2022/09/12 02:57:16;;;;;;;12.00;10.33;;;;;;;;;;5040738;28;20445;-81
2022/09/12 02:59:42;;;;;;;11.60;10.40;;;;;;;;;;5042602;28;21345;-81
2022/09/12 03:02:13;;;;;;;12.85;10.18;;;;;;;;;;5043785;28;20992;-81
2022/09/12 03:04:50;;;;;;;11.70;10.50;;;;;;;;;;5046246;28;20883;-81
2022/09/12 03:07:17;;;;;;;12.15;10.70;;;;;;;;;;5040749;28;20430;-81
2022/09/12 03:09:49;;;;;;;11.30;10.20;;;;;;;;;;5040871;28;20419;-79
2022/09/12 03:12:25;;;;;;;11.10;10.00;;;;;;;;;;5042827;28;20440;-82
2022/09/12 03:15:00;;;;;;;12.13;10.83;;;;;;;;;;5042618;28;20417;-82
2022/09/12 03:17:30;;;;;;;11.50;10.30;;;;;;;;;;5042406;28;20470;-82
2022/09/12 03:20:00;;;;;;;10.60;9.00;;;;;;;;;;5039969;28;20410;-79
2022/09/12 03:22:30;;;;;;;11.80;10.60;;;;;;;;;;5041110;28;20434;-80
2022/09/12 03:25:00;;;;;;;12.02;10.82;;;;;;;;;;5042481;28;20429;-80
2022/09/12 03:27:29;;;;;;;12.15;10.90;;;;;;;;;;5041999;28;20427;-80
2022/09/12 03:29:56;;;;;;;13.73;11.82;;;;;;;;;;5042877;28;20422;-80
2022/09/12 03:32:37;;;;;;;13.52;12.13;;;;;;;;;;5043167;28;20427;-82
2022/09/12 03:35:05;;;;;;;13.97;12.47;;;;;;;;;;5041171;28;20478;-80
2022/09/12 03:37:31;;;;;;;14.77;12.85;;;;;;;;;;5042283;28;20438;-80
2022/09/12 03:39:59;;;;;;;13.98;12.57;;;;;;;;;;5040299;28;20428;-81
2022/09/12 03:42:26;;;;;;;14.30;12.55;;;;;;;;;;5040465;28;20429;-81
2022/09/12 03:44:52;;;;;;;13.40;12.00;;;;;;;;;;5044148;28;20437;-80
2022/09/12 03:47:19;;;;;;;14.10;11.98;;;;;;;;;;5041540;28;20439;-85
2022/09/12 03:49:46;;;;;;;14.15;12.65;;;;;;;;;;5041603;28;20425;-80
2022/09/12 03:52:12;;;;;;;14.60;12.77;;;;;;;;;;5041549;28;20498;-80
2022/09/12 03:54:39;;;;;;;13.40;11.55;;;;;;;;;;5042326;28;20758;-80
2022/09/12 03:57:07;;;;;;;15.40;12.60;;;;;;;;;;5044147;28;20470;-80
2022/09/12 03:59:33;;;;;;;16.52;14.75;;;;;;;;;;5039782;28;20429;-82
2022/09/12 04:02:00;;;;;;;15.77;14.07;;;;;;;;;;5044511;28;20491;-82
2022/09/12 04:04:26;;;;;;;16.13;14.35;;;;;;;;;;5042494;28;20473;-81
2022/09/12 04:06:54;;;;;;;14.23;12.73;;;;;;;;;;5043876;28;20826;-81
2022/09/12 04:09:20;;;;;;;15.13;13.30;;;;;;;;;;5039870;28;20496;-81
2022/09/12 04:11:46;;;;;;;16.02;13.55;;;;;;;;;;5043306;28;20438;-82
2022/09/12 04:14:14;;;;;;;15.35;13.38;;;;;;;;;;5043115;28;20433;-82
2022/09/12 04:16:41;;;;;;;15.85;14.25;;;;;;;;;;5044505;28;20505;-81
2022/09/12 04:19:08;;;;;;;15.47;13.80;;;;;;;;;;5044798;28;20529;-82
2022/09/12 04:21:34;;;;;;;15.40;13.70;;;;;;;;;;5044625;28;20434;-81
2022/09/12 04:24:01;;;;;;;15.60;13.25;;;;;;;;;;5047207;28;20429;-81
2022/09/12 04:26:28;;;;;;;15.03;13.10;;;;;;;;;;5044767;28;20441;-81
2022/09/12 04:28:56;;;;;;;14.63;13.02;;;;;;;;;;5047322;28;20436;-81
2022/09/12 04:31:24;;;;;;;14.38;12.18;;;;;;;;;;5046439;28;20422;-82
2022/09/12 04:33:53;;;;;;;14.90;13.30;;;;;;;;;;5046196;28;20822;-81
2022/09/12 04:36:20;;;;;;;14.60;12.37;;;;;;;;;;5045061;28;20431;-81
2022/09/12 04:38:47;;;;;;;14.30;12.20;;;;;;;;;;5046013;28;22323;-83
2022/09/12 04:41:14;;;;;;;15.07;12.70;;;;;;;;;;5047277;28;20452;-82
2022/09/12 04:43:41;;;;;;;14.18;12.77;;;;;;;;;;5047103;28;20438;-80
2022/09/12 04:46:08;;;;;;;15.50;13.73;;;;;;;;;;5044491;28;20434;-83
2022/09/12 04:48:36;;;;;;;17.27;14.10;;;;;;;;;;5043687;28;20919;-80
2022/09/12 04:51:09;;;;;;;16.70;13.93;;;;;;;;;;5047422;28;20436;-81
2022/09/12 04:53:35;;;;;;;18.98;15.27;;;;;;;;;;5045388;28;20433;-82
2022/09/12 04:56:02;;;;;;;18.20;15.07;;;;;;;;;;5044840;28;20426;-81
2022/09/12 04:58:28;;;;;;;19.40;15.35;;;;;;;;;;5050782;28;20421;-80
2022/09/12 05:00:55;;;;;;;16.48;14.63;;;;;;;;;;5044787;28;20935;-80
2022/09/12 05:03:21;;;;;;;16.88;15.07;;;;;;;;;;5044674;28;20792;-80
2022/09/12 05:05:49;;;;;;;19.38;16.00;;;;;;;;;;5045243;28;20413;-80
2022/09/12 05:08:16;;;;;;;19.77;16.90;;;;;;;;;;5045424;28;20435;-80
2022/09/12 05:10:42;;;;;;;20.00;17.02;;;;;;;;;;5045160;28;20428;-82
2022/09/12 05:13:09;;;;;;;20.65;17.42;;;;;;;;;;5046305;28;20431;-81
2022/09/12 05:15:36;;;;;;;19.52;16.80;;;;;;;;;;5045337;28;20424;-80
2022/09/12 05:18:02;;;;;;;20.38;17.40;;;;;;;;;;5045249;28;20433;-82
2022/09/12 05:20:29;;;;;;;22.40;17.77;;;;;;;;;;5045305;28;20427;-80
2022/09/12 05:22:58;;;;;;;22.52;18.60;;;;;;;;;;5043523;28;20439;-80
2022/09/12 05:25:25;;;;;;;22.00;17.37;;;;;;;;;;5045577;28;20779;-80
2022/09/12 05:27:52;;;;;;;22.25;18.08;;;;;;;;;;5045987;28;20428;-81
2022/09/12 05:30:18;;;;;;;23.97;20.40;;;;;;;;;;5058273;28;20445;-81
2022/09/12 05:32:45;;;;;;;23.30;18.95;;;;;;;;;;5045520;28;20941;-81
2022/09/12 05:35:11;;;;;;;23.50;19.98;;;;;;;;;;5045522;28;20445;-82
2022/09/12 05:37:38;;;;;;;20.90;17.17;;;;;;;;;;5043708;28;20422;-82
2022/09/12 05:40:08;;;;;;;21.43;18.10;;;;;;;;;;5046249;28;20563;-81
2022/09/12 05:42:35;;;;;;;26.42;19.55;;;;;;;;;;5046397;28;20515;-82
2022/09/12 05:45:02;;;;;;;26.45;19.52;;;;;;;;;;5044751;28;20424;-81
2022/09/12 05:47:28;;;;;;;23.40;18.80;;;;;;;;;;5046508;28;20432;-82
2022/09/12 05:49:56;;;;;;;24.33;19.60;;;;;;;;;;5045346;28;20508;-81
2022/09/12 05:52:22;;;;;;;26.98;21.77;;;;;;;;;;5046240;28;20429;-82
2022/09/12 05:54:49;;;;;;;23.65;19.45;;;;;;;;;;5046614;28;20576;-81
2022/09/12 05:57:17;;;;;;;23.13;19.67;;;;;;;;;;5044845;28;20512;-80
2022/09/12 05:59:44;;;;;;;27.75;22.30;;;;;;;;;;5044970;28;20415;-80
2022/09/12 06:02:11;;;;;;;25.73;21.23;;;;;;;;;;5043583;28;20429;-80
2022/09/12 06:04:42;;;;;;;27.90;23.15;;;;;;;;;;5043274;28;20412;-81
2022/09/12 06:07:09;;;;;;;26.42;22.20;;;;;;;;;;5043863;28;20445;-82
2022/09/12 06:09:35;;;;;;;26.90;22.25;;;;;;;;;;5045518;28;20433;-84
2022/09/12 06:12:03;;;;;;;29.88;24.60;;;;;;;;;;5045265;28;20524;-80
2022/09/12 06:14:31;;;;;;;30.48;23.95;;;;;;;;;;5045774;28;20421;-81
2022/09/12 06:17:00;;;;;;;35.22;26.35;;;;;;;;;;5045255;28;20937;-81
2022/09/12 06:19:27;;;;;;;39.47;29.77;;;;;;;;;;5043168;28;20429;-82
2022/09/12 06:21:54;;;;;;;31.85;26.42;;;;;;;;;;5046056;28;20429;-79
2022/09/12 06:24:20;;;;;;;37.50;28.70;;;;;;;;;;5044102;28;20437;-80
2022/09/12 06:26:47;;;;;;;35.92;26.30;;;;;;;;;;5044815;28;20431;-80
2022/09/12 06:29:14;;;;;;;35.00;27.70;;;;;;;;;;5044103;28;20809;-81
2022/09/12 06:31:42;;;;;;;38.85;30.73;;;;;;;;;;5043737;28;20434;-80
2022/09/12 06:34:10;;;;;;;33.00;27.27;;;;;;;;;;5045060;28;20924;-81
2022/09/12 06:36:37;;;;;;;40.33;29.80;;;;;;;;;;5043271;28;20797;-80
2022/09/12 06:39:05;;;;;;;40.10;32.38;;;;;;;;;;5044034;28;20431;-81
2022/09/12 06:41:32;;;;;;;40.45;31.65;;;;;;;;;;5044963;28;20431;-82
2022/09/12 06:43:59;;;;;;;42.13;32.80;;;;;;;;;;5042217;28;20942;-81
2022/09/12 06:46:25;;;;;;;39.28;31.52;;;;;;;;;;5042242;28;20419;-82
2022/09/12 06:48:53;;;;;;;45.88;32.88;;;;;;;;;;5044245;28;20425;-82
2022/09/12 06:51:20;;;;;;;42.78;32.50;;;;;;;;;;5041192;28;20941;-80
2022/09/12 06:53:47;;;;;;;39.40;29.25;;;;;;;;;;5046350;28;20455;-82
2022/09/12 06:56:14;;;;;;;37.78;29.48;;;;;;;;;;5041666;28;20498;-81
2022/09/12 06:58:41;;;;;;;32.90;28.98;;;;;;;;;;5042403;28;20427;-81
2022/09/12 07:01:08;;;;;;;34.03;30.05;;;;;;;;;;5039534;28;20431;-81
2022/09/12 07:03:36;;;;;;;37.42;29.38;;;;;;;;;;5043799;28;20425;-81
2022/09/12 07:06:05;;;;;;;39.53;31.77;;;;;;;;;;5042042;28;20469;-80
2022/09/12 07:08:31;;;;;;;36.85;30.70;;;;;;;;;;5042420;28;20436;-80
2022/09/12 07:11:00;;;;;;;41.20;30.20;;;;;;;;;;5041758;28;20479;-81
2022/09/12 07:13:27;;;;;;;35.10;28.52;;;;;;;;;;5044249;28;20449;-80
2022/09/12 07:15:54;;;;;;;34.50;28.52;;;;;;;;;;5042767;28;20432;-82
2022/09/12 07:18:20;;;;;;;34.05;28.65;;;;;;;;;;5043270;28;20457;-81
2022/09/12 07:20:48;;;;;;;34.38;28.67;;;;;;;;;;5043276;28;20425;-81
2022/09/12 07:23:16;;;;;;;33.83;28.38;;;;;;;;;;5044010;28;20433;-82
2022/09/12 07:25:42;;;;;;;32.35;27.23;;;;;;;;;;5042971;28;20428;-81
2022/09/12 07:28:09;;;;;;;32.65;28.20;;;;;;;;;;5043204;28;20442;-82
2022/09/12 07:30:37;;;;;;;33.58;28.20;;;;;;;;;;5043656;28;20429;-81
2022/09/12 07:33:03;;;;;;;34.17;28.45;;;;;;;;;;5041349;28;20433;-81
2022/09/12 07:35:32;;;;;;;36.00;28.17;;;;;;;;;;5043642;28;21015;-81
2022/09/12 07:37:58;;;;;;;32.63;27.42;;;;;;;;;;5043130;28;20918;-81
2022/09/12 07:40:26;;;;;;;32.03;27.35;;;;;;;;;;5040832;28;20812;-82
2022/09/12 07:42:53;;;;;;;33.58;27.08;;;;;;;;;;5041801;28;20458;-81
2022/09/12 07:45:19;;;;;;;32.88;26.60;;;;;;;;;;5040880;28;20423;-85
2022/09/12 07:47:46;;;;;;;30.80;26.17;;;;;;;;;;5044491;28;20429;-81
2022/09/12 07:50:12;;;;;;;33.65;26.90;;;;;;;;;;5044469;28;20430;-83
2022/09/12 07:52:38;;;;;;;32.90;26.48;;;;;;;;;;5045866;28;20434;-83
2022/09/12 07:55:06;;;;;;;34.95;27.50;;;;;;;;;;5045844;28;20413;-80
2022/09/12 07:57:33;;;;;;;34.00;28.50;;;;;;;;;;5044564;28;20425;-82
2022/09/12 08:00:00;;;;;;;34.40;28.50;;;;;;;;;;5044693;28;20417;-79
2022/09/12 08:02:26;;;;;;;34.97;29.25;;;;;;;;;;5044035;28;20502;-81
2022/09/12 08:04:53;;;;;;;34.97;28.90;;;;;;;;;;5046914;28;20407;-82
2022/09/12 08:07:19;;;;;;;31.13;27.65;;;;;;;;;;5047356;28;20423;-82
2022/09/12 08:09:46;;;;;;;35.20;30.20;;;;;;;;;;5045985;28;20436;-82
2022/09/12 08:12:12;;;;;;;37.67;30.40;;;;;;;;;;5047267;28;20428;-82
2022/09/12 08:14:40;;;;;;;32.30;28.30;;;;;;;;;;5044803;28;20405;-82
2022/09/12 08:17:07;;;;;;;34.95;28.52;;;;;;;;;;5046506;28;20417;-81
2022/09/12 08:19:33;;;;;;;37.97;29.75;;;;;;;;;;5045397;28;20425;-83
2022/09/12 08:22:00;;;;;;;36.13;28.42;;;;;;;;;;5046983;28;20435;-83
2022/09/12 08:24:26;;;;;;;36.08;30.25;;;;;;;;;;5046375;28;20429;-83
2022/09/12 08:26:53;;;;;;;36.00;30.17;;;;;;;;;;5045825;28;20483;-82
2022/09/12 08:29:19;;;;;;;33.95;28.10;;;;;;;;;;5045437;28;20422;-81
2022/09/12 08:31:47;;;;;;;33.78;28.33;;;;;;;;;;5046053;28;20429;-82
2022/09/12 08:34:15;;;;;;;32.80;28.55;;;;;;;;;;5044190;28;20531;-81
2022/09/12 08:36:42;;;;;;;35.72;27.27;;;;;;;;;;5044162;28;20438;-81
2022/09/12 08:39:09;;;;;;;32.47;27.37;;;;;;;;;;5046279;28;20433;-81
2022/09/12 08:41:38;;;;;;;33.78;28.73;;;;;;;;;;5046630;28;20877;-82
2022/09/12 08:44:26;;;;;;;29.53;26.20;;;;;;;;;;5047752;28;20441;-80
2022/09/12 08:47:01;;;;;;;32.00;26.63;;;;;;;;;;5046402;28;21034;-81
2022/09/12 08:49:29;;;;;;;31.48;27.85;;;;;;;;;;5043804;28;20435;-83
2022/09/12 08:51:57;;;;;;;31.73;26.95;;;;;;;;;;5046400;28;20435;-83
2022/09/12 08:54:25;;;;;;;30.50;25.30;;;;;;;;;;5044311;28;20437;-82
2022/09/12 08:56:56;;;;;;;29.58;26.27;;;;;;;;;;5044830;28;20834;-81
2022/09/12 08:59:22;;;;;;;32.33;26.90;;;;;;;;;;5045261;28;20437;-81
2022/09/12 09:01:52;;;;;;;29.45;24.88;;;;;;;;;;5046489;28;20443;-81
2022/09/12 09:04:32;;;;;;;30.65;26.90;;;;;;;;;;5045859;28;20973;-80
2022/09/12 09:07:17;;;;;;;32.83;28.08;;;;;;;;;;5044567;28;20514;-81
2022/09/12 09:09:55;;;;;;;31.77;26.35;;;;;;;;;;5044108;28;20421;-82
2022/09/12 09:12:25;;;;;;;31.70;27.00;;;;;;;;;;5047521;28;20449;-80
2022/09/12 09:15:08;;;;;;;28.45;25.42;;;;;;;;;;5045893;28;20439;-81
2022/09/12 09:17:38;;;;;;;31.13;26.13;;;;;;;;;;5047275;28;20434;-81
2022/09/12 09:20:12;;;;;;;28.80;24.00;;;;;;;;;;5045919;28;20426;-80
2022/09/12 09:22:41;;;;;;;27.63;23.57;;;;;;;;;;5046026;28;20433;-80
2022/09/12 09:25:11;;;;;;;29.67;24.45;;;;;;;;;;5044062;28;20426;-81
2022/09/12 09:27:41;;;;;;;27.10;24.02;;;;;;;;;;5043813;28;20433;-81
2022/09/12 09:30:13;;;;;;;29.42;24.20;;;;;;;;;;5044682;28;20425;-81
2022/09/12 09:32:41;;;;;;;28.05;23.70;;;;;;;;;;5046913;28;20430;-81
2022/09/12 09:35:15;;;;;;;29.03;24.30;;;;;;;;;;5046495;28;20904;-81
2022/09/12 09:37:42;;;;;;;27.80;23.80;;;;;;;;;;5044387;28;20929;-82
2022/09/12 09:40:17;;;;;;;26.52;22.00;;;;;;;;;;5044244;28;20431;-80
2022/09/12 09:42:45;;;;;;;25.50;22.50;;;;;;;;;;5044845;28;20435;-82
2022/09/12 09:45:14;;;;;;;28.27;23.63;;;;;;;;;;5042975;28;20428;-80
2022/09/12 09:47:41;;;;;;;26.42;21.27;;;;;;;;;;5043353;28;20484;-82
2022/09/12 09:50:12;;;;;;;25.73;22.35;;;;;;;;;;5043841;28;20431;-81
2022/09/12 09:52:41;;;;;;;26.00;21.38;;;;;;;;;;5041938;28;20526;-81
2022/09/12 09:55:13;;;;;;;28.30;22.47;;;;;;;;;;5042630;28;20417;-81
2022/09/12 09:57:43;;;;;;;27.02;22.65;;;;;;;;;;5043570;28;20532;-81
2022/09/12 10:00:24;;;;;;;26.08;21.23;;;;;;;;;;5041356;28;20510;-81
2022/09/12 10:03:15;;;;;;;23.15;19.35;;;;;;;;;;5042672;28;20455;-80
2022/09/12 10:05:45;;;;;;;25.87;19.63;;;;;;;;;;5023098;28;20496;-81
2022/09/12 10:08:19;;;;;;;23.00;18.10;;;;;;;;;;5044565;28;20437;-81
2022/09/12 10:10:53;;;;;;;20.42;17.20;;;;;;;;;;5043946;28;20427;-81
2022/09/12 10:13:23;;;;;;;18.10;15.07;;;;;;;;;;5044899;28;20417;-81
2022/09/12 10:15:56;;;;;;;20.23;15.82;;;;;;;;;;5045998;28;20433;-81
2022/09/12 10:18:33;;;;;;;19.03;14.97;;;;;;;;;;5044361;28;20466;-80
2022/09/12 10:21:00;;;;;;;18.38;14.95;;;;;;;;;;5045686;28;20462;-80
2022/09/12 10:23:32;;;;;;;19.08;14.10;;;;;;;;;;5042106;28;20433;-81
2022/09/12 10:26:00;;;;;;;15.25;13.63;;;;;;;;;;5042987;28;20418;-81
2022/09/12 10:28:31;;;;;;;16.10;12.90;;;;;;;;;;5043237;28;20530;-81
2022/09/12 10:31:01;;;;;;;15.13;13.00;;;;;;;;;;5043928;28;20944;-80
2022/09/12 10:33:30;;;;;;;14.15;12.35;;;;;;;;;;5044531;28;20437;-81
2022/09/12 10:35:57;;;;;;;16.05;13.07;;;;;;;;;;5043159;28;20419;-82
2022/09/12 10:38:25;;;;;;;14.68;13.13;;;;;;;;;;5042599;28;20435;-81
2022/09/12 10:40:58;;;;;;;13.40;12.00;;;;;;;;;;5041206;28;20434;-81
2022/09/12 10:43:27;;;;;;;20.85;14.02;;;;;;;;;;5043108;28;20520;-80
2022/09/12 10:45:57;;;;;;;15.98;13.15;;;;;;;;;;5042694;28;20431;-80
2022/09/12 10:48:27;;;;;;;15.10;12.70;;;;;;;;;;5041903;28;20435;-81
2022/09/12 10:50:53;;;;;;;17.70;12.18;;;;;;;;;;5040153;28;20433;-81
2022/09/12 10:53:20;;;;;;;13.13;11.43;;;;;;;;;;5041764;28;20457;-81
2022/09/12 10:56:02;;;;;;;12.23;10.77;;;;;;;;;;5043671;28;20425;-81
2022/09/12 10:58:44;;;;;;;13.73;11.23;;;;;;;;;;5042451;28;20430;-81
2022/09/12 11:01:16;;;;;;;13.50;10.43;;;;;;;;;;5026175;28;20427;-81
2022/09/12 11:03:53;;;;;;;12.57;9.90;;;;;;;;;;5042580;28;20484;-85
2022/09/12 11:06:22;;;;;;;13.23;9.68;;;;;;;;;;5040372;28;20469;-81
2022/09/12 11:08:58;;;;;;;10.45;9.02;;;;;;;;;;5042992;28;20421;-81
2022/09/12 11:11:39;;;;;;;9.50;7.80;;;;;;;;;;5040635;28;20425;-82
2022/09/12 11:14:11;;;;;;;8.80;7.90;;;;;;;;;;5041583;28;20445;-82
2022/09/12 11:16:41;;;;;;;9.47;7.70;;;;;;;;;;5040373;28;20522;-81
2022/09/12 11:19:15;;;;;;;8.68;6.55;;;;;;;;;;5039828;28;20441;-80
2022/09/12 11:21:47;;;;;;;8.02;6.15;;;;;;;;;;5037368;28;20422;-82
2022/09/12 11:24:21;;;;;;;7.93;6.13;;;;;;;;;;5041334;28;20433;-81
2022/09/12 11:26:57;;;;;;;8.45;5.28;;;;;;;;;;5060751;28;20427;-81
2022/09/12 11:29:29;;;;;;;5.80;5.13;;;;;;;;;;5059992;28;20842;-82
2022/09/12 11:32:06;;;;;;;6.33;5.13;;;;;;;;;;5062327;28;20433;-82
2022/09/12 11:34:38;;;;;;;6.43;4.90;;;;;;;;;;5059893;28;20932;-82
2022/09/12 11:37:11;;;;;;;6.88;5.40;;;;;;;;;;5040633;28;20433;-81
2022/09/12 11:39:38;;;;;;;6.22;5.10;;;;;;;;;;5040296;28;20782;-82
2022/09/12 11:42:12;;;;;;;6.65;5.55;;;;;;;;;;5039225;28;20583;-83
2022/09/12 11:44:40;;;;;;;6.43;5.35;;;;;;;;;;5040443;28;20765;-82
2022/09/12 11:47:08;;;;;;;5.90;4.32;;;;;;;;;;5040672;28;20440;-82
2022/09/12 11:49:38;;;;;;;6.13;5.00;;;;;;;;;;5042483;28;20431;-83
2022/09/12 11:52:07;;;;;;;6.27;4.80;;;;;;;;;;5042892;28;20509;-82
2022/09/12 11:54:36;;;;;;;5.05;4.43;;;;;;;;;;5038956;28;20475;-84
2022/09/12 11:57:07;;;;;;;6.00;4.90;;;;;;;;;;5045602;28;20439;-83
2022/09/12 11:59:40;;;;;;;7.70;4.85;;;;;;;;;;5042113;28;20441;-82
2022/09/12 12:02:11;;;;;;;7.20;5.00;;;;;;;;;;5042075;28;20443;-81
2022/09/12 12:04:41;;;;;;;5.63;5.10;;;;;;;;;;5040612;28;20462;-81
2022/09/12 12:07:09;;;;;;;5.78;5.20;;;;;;;;;;5039962;28;20439;-82
2022/09/12 12:09:36;;;;;;;6.82;4.80;;;;;;;;;;5040119;28;20431;-81
2022/09/12 12:12:05;;;;;;;6.15;4.80;;;;;;;;;;5041354;28;20452;-81
2022/09/12 12:14:36;;;;;;;6.70;5.15;;;;;;;;;;5040623;28;20438;-80
2022/09/12 12:17:05;;;;;;;5.30;4.80;;;;;;;;;;5042342;28;20743;-80
2022/09/12 12:19:33;;;;;;;5.32;4.63;;;;;;;;;;5028644;28;20421;-81
2022/09/12 12:22:08;;;;;;;7.25;5.30;;;;;;;;;;5038349;28;20423;-82
2022/09/12 12:24:34;;;;;;;6.55;4.30;;;;;;;;;;5039214;28;20421;-81
2022/09/12 12:27:01;;;;;;;5.63;4.32;;;;;;;;;;5039119;28;20431;-83
2022/09/12 12:29:39;;;;;;;5.50;4.32;;;;;;;;;;5041778;28;20798;-81
2022/09/12 12:32:20;;;;;;;4.95;4.45;;;;;;;;;;5037917;28;20919;-80
2022/09/12 12:34:47;;;;;;;4.90;4.13;;;;;;;;;;5041744;28;20439;-81
2022/09/12 12:37:32;;;;;;;4.30;3.88;;;;;;;;;;5040790;28;20445;-80
2022/09/12 12:40:03;;;;;;;4.82;3.67;;;;;;;;;;5043365;28;20447;-82
2022/09/12 12:43:01;;;;;;;5.03;4.53;;;;;;;;;;5043490;28;20438;-80
2022/09/12 12:45:47;;;;;;;7.20;4.20;;;;;;;;;;5042996;28;20436;-81
2022/09/12 12:48:17;;;;;;;5.13;4.10;;;;;;;;;;5042291;28;20426;-80
2022/09/12 12:50:45;;;;;;;6.43;4.00;;;;;;;;;;5043813;28;20424;-82
2022/09/12 12:53:17;;;;;;;4.35;3.75;;;;;;;;;;5041498;28;20919;-82
2022/09/12 12:55:47;;;;;;;4.85;3.92;;;;;;;;;;5042030;28;20430;-81
2022/09/12 12:58:24;;;;;;;4.30;3.50;;;;;;;;;;5044968;28;20940;-81
2022/09/12 13:01:02;;;;;;;5.07;3.60;;;;;;;;;;5042533;28;20423;-80
2022/09/12 13:03:31;;;;;;;6.33;4.23;;;;;;;;;;5044341;28;20436;-80
2022/09/12 13:06:00;;;;;;;6.18;4.88;;;;;;;;;;5045691;28;20428;-82
2022/09/12 13:08:30;;;;;;;5.15;4.15;;;;;;;;;;5042559;28;20423;-81
2022/09/12 13:10:58;;;;;;;4.75;4.25;;;;;;;;;;5042209;28;20425;-79
2022/09/12 13:13:25;;;;;;;5.00;3.95;;;;;;;;;;5041702;28;20942;-81
2022/09/12 13:15:52;;;;;;;4.78;3.60;;;;;;;;;;5042416;28;20924;-79
2022/09/12 13:18:22;;;;;;;4.93;4.35;;;;;;;;;;5041465;28;20817;-80
2022/09/12 13:20:52;;;;;;;4.40;3.70;;;;;;;;;;5040849;28;20521;-79
2022/09/12 13:23:22;;;;;;;5.20;4.10;;;;;;;;;;5041407;28;20947;-80
2022/09/12 13:25:52;;;;;;;5.20;4.70;;;;;;;;;;5040933;28;20431;-79
2022/09/12 13:28:18;;;;;;;5.45;4.57;;;;;;;;;;5041279;28;20411;-80
2022/09/12 13:30:47;;;;;;;4.82;4.20;;;;;;;;;;5038927;28;20427;-79
2022/09/12 13:33:18;;;;;;;4.57;3.88;;;;;;;;;;5040158;28;20430;-79
2022/09/12 13:36:02;;;;;;;5.43;4.22;;;;;;;;;;5042016;28;20421;-79
2022/09/12 13:38:34;;;;;;;3.70;3.40;;;;;;;;;;5028310;28;20483;-78
2022/09/12 13:41:09;;;;;;;4.97;4.00;;;;;;;;;;5040142;28;20500;-79
2022/09/12 13:43:38;;;;;;;4.40;3.97;;;;;;;;;;5043514;28;20438;-80
2022/09/12 13:46:06;;;;;;;5.90;3.55;;;;;;;;;;5050719;28;20983;-81
2022/09/12 13:48:32;;;;;;;5.05;3.70;;;;;;;;;;5059580;28;20431;-83
2022/09/12 13:51:00;;;;;;;4.03;3.50;;;;;;;;;;5051679;28;20417;-81
2022/09/12 13:53:29;;;;;;;8.57;4.23;;;;;;;;;;5037763;28;20429;-79
2022/09/12 13:55:58;;;;;;;4.45;4.05;;;;;;;;;;5040579;28;20422;-80
2022/09/12 13:58:25;;;;;;;7.78;3.83;;;;;;;;;;5039554;28;20486;-79
2022/09/12 14:01:09;;;;;;;5.90;3.70;;;;;;;;;;5038225;28;20520;-80
2022/09/12 14:06:26;;;;;;;6.13;3.50;;;;;;;;;;5039933;28;20419;-80
2022/09/12 14:08:55;;;;;;;5.90;3.60;;;;;;;;;;5039501;28;20433;-80
2022/09/12 14:11:27;;;;;;;4.00;3.60;;;;;;;;;;5040736;28;20437;-79
2022/09/12 14:13:54;;;;;;;3.72;3.17;;;;;;;;;;5039894;28;20435;-80
2022/09/12 14:16:22;;;;;;;4.68;3.20;;;;;;;;;;5039303;28;20909;-80
2022/09/12 14:18:48;;;;;;;5.00;3.73;;;;;;;;;;5039337;28;20482;-79
2022/09/12 14:21:27;;;;;;;4.40;3.70;;;;;;;;;;5039786;28;20545;-80
2022/09/12 14:23:54;;;;;;;4.55;3.83;;;;;;;;;;5040228;28;20964;-79
2022/09/12 14:26:21;;;;;;;5.55;4.15;;;;;;;;;;5040272;28;20423;-81
2022/09/12 14:28:49;;;;;;;5.90;4.28;;;;;;;;;;5039476;28;20507;-80
2022/09/12 14:31:21;;;;;;;5.15;4.00;;;;;;;;;;5040789;28;20413;-79
2022/09/12 14:33:49;;;;;;;4.45;3.75;;;;;;;;;;5039184;28;20443;-79
2022/09/12 14:36:18;;;;;;;4.63;3.60;;;;;;;;;;5038562;28;20431;-81
2022/09/12 14:38:46;;;;;;;4.68;4.18;;;;;;;;;;5041433;28;20933;-80
2022/09/12 14:41:14;;;;;;;4.63;3.70;;;;;;;;;;5038334;28;20923;-79
2022/09/12 14:43:43;;;;;;;5.88;3.80;;;;;;;;;;5040437;28;20487;-80